Time;durP1;ratioP1;P1;durP2;ratioP2;P2;SDS_P1;SDS_P2;PMS_P1;PMS_P2;Temp;Humidity;BMP_temperature;BMP_pressure;BME280_temperature;BME280_humidity;BME280_pressure;Samples;Min_cycle;Max_cycle;Signal;HPM_P1;HPM_P2
2021/11/30 00:00:31;;;;;;;;;26.00;25.00;;;;;8.03;48.43;97489.03;6161508;28;97790;-67
2021/11/30 00:03:35;;;;;;;;;26.00;24.00;;;;;8.04;48.48;97490.66;6177252;28;97318;-65
2021/11/30 00:06:39;;;;;;;;;26.40;24.40;;;;;8.04;48.55;97490.66;6155085;28;97149;-67
2021/11/30 00:13:08;;;;;;;;;28.50;24.00;;;;;8.06;48.34;97492.03;6143467;28;98316;-67
2021/11/30 00:16:14;;;;;;;;;29.00;24.00;;;;;7.94;48.62;97487.78;6164514;28;99869;-66
2021/11/30 00:19:17;;;;;;;;;27.80;25.80;;;;;7.81;48.81;97489.69;6168783;28;97866;-66
2021/11/30 00:22:23;;;;;;;;;30.33;25.00;;;;;7.87;48.66;97495.16;6175857;28;97409;-66
2021/11/30 00:25:27;;;;;;;;;28.00;24.00;;;;;7.88;48.73;97488.72;6184080;28;96849;-66
2021/11/30 00:28:30;;;;;;;;;27.00;24.00;;;;;7.86;48.82;97494.34;6185784;28;97029;-66
2021/11/30 00:31:35;;;;;;;;;25.80;24.80;;;;;7.87;48.58;97504.00;6173992;28;97684;-66
2021/11/30 00:34:38;;;;;;;;;26.00;22.60;;;;;7.84;48.48;97508.00;6185788;28;97333;-65
2021/11/30 00:37:42;;;;;;;;;26.20;22.20;;;;;8.00;48.65;97519.03;6176444;28;97460;-66
2021/11/30 00:40:47;;;;;;;;;24.00;22.60;;;;;7.91;49.12;97523.97;6182919;28;96452;-65
2021/11/30 00:43:51;;;;;;;;;25.20;22.00;;;;;7.69;49.81;97534.50;6150629;28;98968;-66
2021/11/30 00:46:57;;;;;;;;;25.00;23.00;;;;;7.70;50.00;97536.13;6153412;28;96789;-65
2021/11/30 00:50:03;;;;;;;;;22.00;20.40;;;;;7.64;50.22;97546.97;6186243;28;97020;-67
2021/11/30 00:53:07;;;;;;;;;24.60;23.00;;;;;7.67;50.39;97541.94;6173202;28;96573;-66
2021/11/30 00:56:10;;;;;;;;;21.40;20.00;;;;;7.78;50.51;97561.78;6158492;28;97887;-67
2021/11/30 00:59:15;;;;;;;;;23.75;18.75;;;;;7.72;50.77;97579.63;6163073;28;97952;-67
2021/11/30 01:02:19;;;;;;;;;25.00;21.00;;;;;7.63;51.33;97569.47;6177461;28;97211;-65
2021/11/30 01:05:23;;;;;;;;;24.00;22.00;;;;;7.69;51.26;97572.06;6159505;28;96574;-67
2021/11/30 01:08:27;;;;;;;;;23.75;20.00;;;;;7.66;51.58;97577.06;6154659;28;96603;-65
2021/11/30 01:11:30;;;;;;;;;19.60;18.60;;;;;7.54;52.01;97584.31;6182649;28;97260;-66
2021/11/30 01:14:33;;;;;;;;;21.00;19.75;;;;;7.62;52.04;97590.16;6188975;28;97452;-66
2021/11/30 01:17:38;;;;;;;;;23.25;21.00;;;;;7.53;52.15;97574.63;6171794;28;97385;-67
2021/11/30 01:20:42;;;;;;;;;23.75;21.00;;;;;7.48;52.29;97591.41;6175536;28;97539;-65
2021/11/30 01:23:45;;;;;;;;;23.60;21.60;;;;;7.65;52.22;97595.03;6187841;28;96472;-65
2021/11/30 01:26:48;;;;;;;;;25.00;22.00;;;;;7.43;52.27;97598.53;6190441;28;97472;-66
2021/11/30 01:29:52;;;;;;;;;26.00;23.00;;;;;7.48;52.61;97599.44;6164975;28;97523;-67
2021/11/30 01:32:57;;;;;;;;;28.00;23.00;;;;;7.43;52.66;97606.59;6177037;28;96341;-67
2021/11/30 01:36:01;;;;;;;;;25.80;23.00;;;;;7.49;53.18;97606.47;6187940;28;97140;-67
2021/11/30 01:39:05;;;;;;;;;27.00;24.50;;;;;7.50;52.89;97602.72;6174192;28;96624;-65
2021/11/30 01:42:09;;;;;;;;;27.80;23.80;;;;;7.52;53.00;97615.91;6187257;28;97500;-67
2021/11/30 01:45:20;;;;;;;;;25.60;24.00;;;;;7.63;52.86;97610.53;6183248;28;97892;-66
2021/11/30 01:51:47;;;;;;;;;28.00;21.40;;;;;7.65;52.66;97600.41;6171659;28;97505;-67
2021/11/30 01:54:51;;;;;;;;;28.00;25.00;;;;;7.74;52.61;97617.75;6176659;28;97078;-67
2021/11/30 01:57:55;;;;;;;;;26.00;23.00;;;;;7.71;52.53;97614.75;6186223;28;98610;-66
2021/11/30 02:00:58;;;;;;;;;28.50;25.25;;;;;7.71;52.59;97626.28;6164917;28;98798;-65
2021/11/30 02:04:04;;;;;;;;;24.60;21.00;;;;;7.62;52.57;97600.06;6169394;28;96589;-67
2021/11/30 02:07:08;;;;;;;;;29.00;25.00;;;;;7.68;52.66;97623.25;6188421;28;97503;-66
2021/11/30 02:10:14;;;;;;;;;28.80;25.80;;;;;7.71;52.52;97628.16;6169929;28;96590;-67
2021/11/30 02:13:17;;;;;;;;;26.80;24.60;;;;;7.65;52.49;97634.44;6187457;28;97355;-66
2021/11/30 02:16:21;;;;;;;;;27.00;25.40;;;;;7.65;52.69;97635.25;6139478;28;98699;-66
2021/11/30 02:19:26;;;;;;;;;28.80;23.20;;;;;7.59;52.84;97636.19;6169825;28;97391;-67
2021/11/30 02:22:31;;;;;;;;;29.00;24.00;;;;;7.59;52.95;97641.56;6187780;28;96509;-65
2021/11/30 02:25:34;;;;;;;;;25.75;24.00;;;;;7.66;52.78;97634.22;6187630;28;96638;-66
2021/11/30 02:28:39;;;;;;;;;27.60;24.00;;;;;7.53;52.97;97633.63;6173312;28;98156;-67
2021/11/30 02:31:48;;;;;;;;;30.00;25.60;;;;;7.61;52.84;97650.19;6187639;28;96578;-66
2021/11/30 02:34:51;;;;;;;;;24.00;22.80;;;;;7.64;52.66;97644.34;6187722;28;97494;-66
2021/11/30 02:37:58;;;;;;;;;29.25;26.25;;;;;7.62;52.64;97635.75;6176577;28;96440;-67
2021/11/30 02:41:02;;;;;;;;;27.75;24.00;;;;;7.75;52.44;97648.91;6176968;28;96545;-65
2021/11/30 02:44:07;;;;;;;;;28.80;25.00;;;;;7.68;52.43;97650.06;6184276;28;96954;-66
2021/11/30 02:47:12;;;;;;;;;25.20;22.80;;;;;7.60;52.38;97642.38;6172672;28;97754;-68
2021/11/30 02:50:15;;;;;;;;;26.25;24.00;;;;;7.49;52.58;97648.53;6188150;28;96531;-66
2021/11/30 02:53:21;;;;;;;;;27.00;23.20;;;;;7.63;52.43;97656.13;6187766;28;96834;-65
2021/11/30 02:56:26;;;;;;;;;22.40;20.40;;;;;7.64;52.24;97641.69;6187313;28;96485;-67
2021/11/30 02:59:32;;;;;;;;;26.60;24.00;;;;;7.61;52.13;97649.38;6168720;28;97025;-66
2021/11/30 03:02:37;;;;;;;;;27.50;23.75;;;;;7.65;52.07;97647.84;6163065;28;97754;-67
2021/11/30 03:05:41;;;;;;;;;25.25;22.50;;;;;7.69;51.81;97657.06;6161536;28;96513;-67
2021/11/30 03:08:45;;;;;;;;;23.40;21.40;;;;;7.52;51.91;97656.97;6146235;28;97207;-66
2021/11/30 03:11:50;;;;;;;;;22.00;19.40;;;;;7.61;52.01;97652.06;6164171;28;96789;-66
2021/11/30 03:14:53;;;;;;;;;24.00;20.00;;;;;7.50;52.33;97664.41;6168698;28;97161;-67
2021/11/30 03:17:57;;;;;;;;;27.00;22.50;;;;;7.53;52.39;97663.94;6167680;28;97453;-67
2021/11/30 03:21:02;;;;;;;;;20.25;20.00;;;;;7.51;52.61;97668.72;6147887;28;99863;-66
2021/11/30 03:24:07;;;;;;;;;25.60;22.60;;;;;7.34;53.00;97659.72;6186376;28;97964;-66
2021/11/30 03:27:10;;;;;;;;;22.20;21.20;;;;;7.42;53.00;97658.56;6185374;28;97461;-68
2021/11/30 03:30:14;;;;;;;;;24.00;20.40;;;;;6.82;52.89;97580.97;6182074;28;97134;-68
2021/11/30 03:36:39;;;;;;;;;22.40;19.60;;;;;7.20;53.09;97658.28;6167514;28;98336;-67
2021/11/30 03:39:44;;;;;;;;;23.00;21.00;;;;;7.21;53.29;97652.72;6159840;28;96481;-67
2021/11/30 03:42:48;;;;;;;;;22.40;20.00;;;;;7.23;53.19;97653.28;6169557;28;97063;-67
2021/11/30 03:45:51;;;;;;;;;24.00;22.00;;;;;7.37;52.96;97662.78;6169757;28;96528;-66
2021/11/30 03:48:55;;;;;;;;;22.40;19.00;;;;;7.29;53.09;97656.91;6177327;28;96785;-66
2021/11/30 03:51:58;;;;;;;;;20.00;18.80;;;;;7.38;52.61;97653.66;6173330;28;96495;-67
2021/11/30 03:55:03;;;;;;;;;22.40;19.40;;;;;7.28;52.65;97656.09;6170022;28;97925;-67
2021/11/30 03:58:27;;;;;;;;;22.00;20.00;;;;;7.28;52.88;97664.13;6168711;28;97817;-67
2021/11/30 04:01:31;;;;;;;;;23.00;21.00;;;;;7.22;53.06;97654.34;6187438;28;97372;-67
2021/11/30 04:04:41;;;;;;;;;21.50;19.00;;;;;7.22;53.07;97650.84;6188666;28;97160;-67
2021/11/30 04:07:44;;;;;;;;;22.00;19.40;;;;;7.14;53.08;97664.56;6155220;28;97988;-66
2021/11/30 04:10:49;;;;;;;;;22.80;21.00;;;;;7.14;52.87;97643.94;6189466;28;97489;-67
2021/11/30 04:13:52;;;;;;;;;23.00;20.25;;;;;7.10;53.19;97666.06;6177751;28;97527;-68
2021/11/30 04:16:56;;;;;;;;;18.80;17.00;;;;;7.26;52.88;97657.38;6188873;28;97224;-68
2021/11/30 04:19:59;;;;;;;;;21.00;18.00;;;;;7.24;52.77;97664.81;6168384;28;98336;-66
2021/11/30 04:23:03;;;;;;;;;19.00;19.00;;;;;7.24;52.63;97662.97;6168685;28;98341;-66
2021/11/30 04:26:08;;;;;;;;;21.00;18.00;;;;;7.28;52.46;97663.34;6155904;28;97980;-68
2021/11/30 04:29:11;;;;;;;;;20.00;18.50;;;;;7.37;52.28;97667.31;6161788;28;96684;-66
2021/11/30 04:32:15;;;;;;;;;20.20;17.20;;;;;7.31;52.13;97668.22;6178802;28;98101;-67
2021/11/30 04:35:18;;;;;;;;;20.20;18.60;;;;;7.29;52.27;97670.31;6169652;28;98359;-68
2021/11/30 04:38:22;;;;;;;;;23.00;20.00;;;;;7.23;nan;97663.22;6178199;28;96534;-67
2021/11/30 04:41:27;;;;;;;;;17.20;15.80;;;;;7.26;52.55;97668.09;6167253;28;97816;-68
2021/11/30 04:44:34;;;;;;;;;21.00;18.25;;;;;7.25;52.50;97675.31;6170475;28;99431;-68
2021/11/30 04:47:39;;;;;;;;;21.40;19.00;;;;;7.14;52.54;97667.25;6173394;28;96578;-68
2021/11/30 04:50:47;;;;;;;;;17.00;15.00;;;;;7.23;52.38;97658.63;6153780;28;97806;-67
2021/11/30 04:53:51;;;;;;;;;20.60;19.00;;;;;7.43;51.99;97670.94;6165075;28;96592;-66
2021/11/30 04:56:56;;;;;;;;;17.00;16.00;;;;;7.34;52.10;97662.41;6168833;28;96978;-67
2021/11/30 04:59:59;;;;;;;;;18.00;16.00;;;;;7.26;52.38;97662.75;6170582;28;97448;-67
2021/11/30 05:03:03;;;;;;;;;18.60;17.00;;;;;7.29;52.20;97678.34;6158596;28;99382;-67
2021/11/30 05:06:07;;;;;;;;;18.00;16.60;;;;;7.28;52.46;97674.06;6181990;28;98050;-67
2021/11/30 05:09:11;;;;;;;;;17.40;16.40;;;;;7.21;52.48;97676.84;6170954;28;96567;-67
2021/11/30 05:12:16;;;;;;;;;16.60;16.00;;;;;7.21;52.35;97684.88;6149213;28;97396;-66
2021/11/30 05:15:19;;;;;;;;;18.00;16.00;;;;;7.10;52.74;97680.28;6157711;28;96701;-67
2021/11/30 05:18:23;;;;;;;;;15.00;14.25;;;;;7.10;52.70;97664.22;6180476;28;96581;-68
2021/11/30 05:21:27;;;;;;;;;17.00;15.00;;;;;7.18;52.93;97685.34;6168509;28;96864;-66
2021/11/30 05:24:30;;;;;;;;;18.60;16.00;;;;;7.25;52.73;97678.00;6181620;28;97480;-70
2021/11/30 05:27:40;;;;;;;;;16.00;16.00;;;;;7.21;52.64;97671.47;6166870;28;96879;-66
2021/11/30 05:30:43;;;;;;;;;21.25;17.00;;;;;7.35;52.02;97672.06;6167991;28;96631;-67
2021/11/30 05:33:48;;;;;;;;;14.20;12.80;;;;;7.30;52.06;97677.31;6167599;28;99956;-68
2021/11/30 05:36:51;;;;;;;;;18.00;17.50;;;;;7.29;52.06;97686.41;6154877;28;97168;-67
2021/11/30 05:39:54;;;;;;;;;17.00;16.00;;;;;7.31;52.08;97687.00;6169324;28;96630;-68
2021/11/30 05:42:59;;;;;;;;;18.00;16.00;;;;;7.14;52.31;97688.69;6168162;28;96979;-69
2021/11/30 05:46:03;;;;;;;;;17.50;16.00;;;;;7.16;52.39;97678.56;6157570;28;98369;-67
2021/11/30 05:49:07;;;;;;;;;15.40;15.40;;;;;7.21;52.36;97684.06;6174439;28;97264;-66
2021/11/30 05:52:10;;;;;;;;;16.75;15.00;;;;;7.39;52.21;97679.44;6171860;28;97460;-67
2021/11/30 05:55:14;;;;;;;;;17.00;15.00;;;;;7.35;51.98;97690.84;6173405;28;98103;-67
2021/11/30 05:58:18;;;;;;;;;16.60;15.00;;;;;7.47;51.86;97685.50;6174230;28;97737;-67
2021/11/30 06:01:25;;;;;;;;;14.67;13.67;;;;;7.46;51.81;97694.59;6173909;28;96927;-66
2021/11/30 06:04:28;;;;;;;;;16.75;14.75;;;;;7.46;51.78;97697.28;6168095;28;97460;-65
2021/11/30 06:07:32;;;;;;;;;16.00;14.00;;;;;7.46;52.00;97694.59;6164117;28;97524;-67
2021/11/30 06:10:35;;;;;;;;;18.40;16.40;;;;;7.40;51.97;97693.66;6173566;28;96786;-67
2021/11/30 06:13:40;;;;;;;;;15.00;14.00;;;;;7.43;51.95;97681.66;6138919;28;99746;-67
2021/11/30 06:16:43;;;;;;;;;14.40;13.60;;;;;7.39;51.90;97678.59;6171917;28;97418;-68
2021/11/30 06:19:47;;;;;;;;;16.00;14.00;;;;;7.39;51.46;97674.06;6186573;28;96531;-65
2021/11/30 06:22:50;;;;;;;;;18.00;16.00;;;;;7.39;51.29;97676.75;6187350;28;96519;-67
2021/11/30 06:25:54;;;;;;;;;14.60;12.60;;;;;7.42;51.12;97674.66;6156347;28;99623;-68
2021/11/30 06:28:59;;;;;;;;;15.00;13.75;;;;;7.52;51.00;97688.31;6188477;28;96621;-68
2021/11/30 06:32:02;;;;;;;;;15.20;13.00;;;;;7.38;51.12;97669.75;6164023;28;96572;-67
2021/11/30 06:35:08;;;;;;;;;15.60;14.00;;;;;7.45;50.78;97680.38;6177640;28;96639;-67
2021/11/30 06:38:11;;;;;;;;;14.00;14.00;;;;;7.48;50.80;97661.13;6146153;28;97037;-68
2021/11/30 06:41:14;;;;;;;;;16.00;16.00;;;;;7.55;50.58;97675.25;6126998;28;98350;-66
2021/11/30 06:44:19;;;;;;;;;14.20;13.00;;;;;7.51;50.43;97670.59;6144027;28;99697;-66
2021/11/30 06:47:25;;;;;;;;;18.60;13.40;;;;;7.44;50.37;97680.59;6141388;28;97839;-66
2021/11/30 06:50:28;;;;;;;;;15.40;14.00;;;;;7.50;50.47;97680.50;6146950;28;98047;-66
2021/11/30 06:53:34;;;;;;;;;16.00;15.00;;;;;7.57;50.14;97688.44;6162513;28;97477;-69
2021/11/30 06:56:37;;;;;;;;;17.60;15.00;;;;;7.59;50.16;97686.34;6163225;28;96868;-67
2021/11/30 06:59:43;;;;;;;;;18.00;15.00;;;;;7.63;50.16;97687.50;6148776;28;96709;-68
2021/11/30 07:02:47;;;;;;;;;14.00;13.00;;;;;7.66;49.85;97687.06;6162689;28;97337;-67
2021/11/30 07:05:53;;;;;;;;;12.25;11.50;;;;;7.55;49.96;97685.97;6143474;28;97704;-67
2021/11/30 07:09:14;;;;;;;;;14.20;12.20;;;;;7.60;50.03;97683.44;6162673;28;96491;-69
2021/11/30 07:12:36;;;;;;;;;13.20;12.20;;;;;7.71;49.44;97698.72;6143349;28;98518;-70
2021/11/30 07:15:40;;;;;;;;;14.40;13.00;;;;;7.73;49.45;97693.91;6155602;28;97493;-69
2021/11/30 07:18:44;;;;;;;;;15.00;14.60;;;;;7.82;49.24;97692.53;6161872;28;96541;-69
2021/11/30 07:21:47;;;;;;;;;13.25;13.25;;;;;7.76;49.24;97693.47;6156553;28;96624;-69
2021/11/30 07:24:51;;;;;;;;;14.40;14.40;;;;;7.72;49.27;97692.28;6163564;28;96466;-69
2021/11/30 07:27:55;;;;;;;;;14.40;13.00;;;;;7.80;49.23;97691.97;6162492;28;96667;-66
2021/11/30 07:31:03;;;;;;;;;13.00;11.60;;;;;7.75;49.41;97685.66;6161167;28;96647;-64
2021/11/30 07:34:07;;;;;;;;;13.60;11.60;;;;;7.67;49.37;97684.13;6131617;28;98512;-66
2021/11/30 07:37:10;;;;;;;;;14.00;13.60;;;;;7.80;49.51;97681.22;6143993;28;96753;-66
2021/11/30 07:40:13;;;;;;;;;14.75;14.00;;;;;7.82;49.10;97672.91;6161175;28;97804;-68
2021/11/30 07:43:18;;;;;;;;;14.33;14.00;;;;;7.81;49.60;97677.50;6169467;28;97426;-68
2021/11/30 07:46:24;;;;;;;;;16.00;15.00;;;;;7.85;49.62;97677.84;6176817;28;96738;-67
2021/11/30 07:49:27;;;;;;;;;14.50;13.00;;;;;7.93;49.43;97674.78;6162612;28;97592;-68
2021/11/30 07:52:36;;;;;;;;;14.00;13.00;;;;;7.90;48.66;97669.09;6169898;28;100025;-67
2021/11/30 07:55:39;;;;;;;;;14.00;11.00;;;;;7.91;48.74;97671.53;6184076;28;97648;-67
2021/11/30 07:58:43;;;;;;;;;13.00;11.50;;;;;7.79;48.78;97652.75;6176131;28;97089;-67
2021/11/30 08:01:47;;;;;;;;;13.00;12.00;;;;;7.81;49.05;97663.25;6157715;28;97974;-65
2021/11/30 08:04:52;;;;;;;;;17.00;14.00;;;;;7.91;48.80;97660.81;6167040;28;98028;-67
2021/11/30 08:07:55;;;;;;;;;14.00;13.00;;;;;7.93;49.13;97660.56;6178222;28;96439;-68
2021/11/30 08:10:58;;;;;;;;;15.00;14.00;;;;;7.95;49.01;97650.41;6137762;28;98291;-65
2021/11/30 08:14:02;;;;;;;;;16.00;15.00;;;;;7.88;49.29;97653.22;6156465;28;97700;-68
2021/11/30 08:17:13;;;;;;;;;16.00;15.00;;;;;7.78;49.71;97644.94;6159794;28;98507;-66
2021/11/30 08:20:18;;;;;;;;;16.00;14.75;;;;;7.93;49.74;97641.78;6175187;28;97559;-68
2021/11/30 08:23:21;;;;;;;;;16.00;14.75;;;;;8.01;49.77;97636.88;6164069;28;98122;-64
2021/11/30 08:26:24;;;;;;;;;15.25;15.00;;;;;7.90;50.09;97632.34;6184823;28;96618;-66
2021/11/30 08:29:28;;;;;;;;;16.75;15.00;;;;;7.84;50.39;97626.03;6165388;28;96708;-67
2021/11/30 08:32:34;;;;;;;;;14.00;14.00;;;;;7.91;50.68;97617.06;6184841;28;97049;-66
2021/11/30 08:35:37;;;;;;;;;15.80;14.20;;;;;7.96;50.45;97612.63;6163340;28;97203;-68
2021/11/30 08:38:41;;;;;;;;;18.00;16.40;;;;;7.99;50.42;97614.81;6167917;28;97484;-68
2021/11/30 08:41:44;;;;;;;;;17.00;15.00;;;;;8.05;50.34;97615.75;6175942;28;96793;-69
2021/11/30 08:45:01;;;;;;;;;14.00;13.50;;;;;8.10;50.34;97616.69;6178784;28;97599;-69
2021/11/30 08:48:07;;;;;;;;;14.00;13.00;;;;;8.18;50.31;97618.16;6150809;28;97709;-68
2021/11/30 08:51:11;;;;;;;;;17.25;16.00;;;;;8.21;50.35;97613.13;6137667;28;96923;-68
2021/11/30 08:54:15;;;;;;;;;16.40;14.00;;;;;8.29;49.88;97609.28;6139867;28;97679;-68
2021/11/30 08:57:18;;;;;;;;;16.00;16.00;;;;;8.23;50.02;97615.59;6168771;28;97119;-67
2021/11/30 09:00:25;;;;;;;;;17.00;16.00;;;;;8.27;49.68;97606.81;6180109;28;96382;-71
2021/11/30 09:03:29;;;;;;;;;16.00;15.00;;;;;8.32;50.08;97602.63;6184444;28;97462;-69
2021/11/30 09:06:33;;;;;;;;;16.00;15.00;;;;;8.27;50.10;97608.69;6166759;28;98454;-69
2021/11/30 09:09:37;;;;;;;;;17.40;15.00;;;;;8.32;49.93;97589.19;6168871;28;97634;-67
2021/11/30 09:12:41;;;;;;;;;18.20;15.60;;;;;8.39;49.50;97597.94;6174473;28;96655;-67
2021/11/30 09:15:45;;;;;;;;;17.00;14.75;;;;;8.23;49.14;97564.56;6180801;28;97437;-66
2021/11/30 09:18:51;;;;;;;;;17.50;16.00;;;;;8.54;48.33;97579.44;6167299;28;97855;-67
2021/11/30 09:21:55;;;;;;;;;16.40;15.40;;;;;8.35;47.51;97570.75;6187627;28;96470;-67
2021/11/30 09:24:59;;;;;;;;;15.00;13.00;;;;;8.23;47.57;97559.22;6168555;28;96727;-68
2021/11/30 09:28:03;;;;;;;;;15.00;13.00;;;;;8.01;46.95;97542.97;6156702;28;97896;-67
2021/11/30 09:31:08;;;;;;;;;15.00;13.00;;;;;8.51;46.64;97545.81;6166617;28;97408;-68
2021/11/30 09:34:17;;;;;;;;;13.00;10.50;;;;;8.48;45.90;97535.56;6157905;28;98585;-69
2021/11/30 09:37:20;;;;;;;;;11.50;10.00;;;;;8.53;45.83;97535.66;6177234;28;97419;-67
2021/11/30 09:40:28;;;;;;;;;8.75;8.75;;;;;8.41;45.99;97532.19;6170761;28;96708;-68
2021/11/30 09:43:52;;;;;;;;;8.20;7.00;;;;;8.30;46.03;97514.28;6184008;28;96937;-67
2021/11/30 09:46:56;;;;;;;;;7.00;7.00;;;;;8.37;45.96;97514.13;6178696;28;97490;-68
2021/11/30 09:50:01;;;;;;;;;6.80;6.80;;;;;8.37;45.86;97509.56;6142459;28;98363;-68
2021/11/30 09:53:05;;;;;;;;;8.80;8.00;;;;;8.90;45.22;97503.75;6167008;28;96981;-65
2021/11/30 09:56:10;;;;;;;;;12.25;11.00;;;;;9.09;44.34;97499.75;6170519;28;97957;-66
2021/11/30 09:59:13;;;;;;;;;8.00;7.00;;;;;9.13;43.54;97475.91;6177529;28;98332;-66
2021/11/30 10:02:19;;;;;;;;;7.00;6.40;;;;;9.31;42.56;97483.69;6179774;28;97634;-68
2021/11/30 10:05:24;;;;;;;;;7.00;7.00;;;;;9.50;42.51;97468.88;6160609;28;98288;-66
2021/11/30 10:08:31;;;;;;;;;9.60;8.60;;;;;10.06;42.02;97472.25;6142846;28;96965;-66
2021/11/30 10:11:43;;;;;;;;;8.00;8.00;;;;;10.29;41.09;97458.53;6166910;28;97442;-69
2021/11/30 10:14:47;;;;;;;;;8.60;8.60;;;;;10.34;40.80;97450.50;6175406;28;97365;-69
2021/11/30 10:17:50;;;;;;;;;7.00;7.00;;;;;11.33;38.11;97443.69;6179440;28;96807;-68
2021/11/30 10:21:17;;;;;;;;;6.00;5.80;;;;;11.40;37.89;97431.56;6149480;28;99884;-69
2021/11/30 10:24:20;;;;;;;;;9.00;7.00;;;;;11.49;37.82;97413.00;6170072;28;97452;-69
2021/11/30 10:27:29;;;;;;;;;5.75;5.25;;;;;11.50;37.04;97418.13;6173301;28;97549;-69
2021/11/30 10:30:35;;;;;;;;;7.00;6.60;;;;;11.29;36.70;97406.44;6165477;28;99521;-68
2021/11/30 10:33:48;;;;;;;;;6.00;5.00;;;;;11.33;36.33;97400.53;6178760;28;97805;-69
2021/11/30 10:36:58;;;;;;;;;5.00;5.00;;;;;11.24;36.71;97395.59;6175733;28;96507;-67
2021/11/30 10:40:09;;;;;;;;;6.60;6.00;;;;;11.18;37.04;97388.59;6160108;28;97193;-66
2021/11/30 10:43:12;;;;;;;;;6.00;6.00;;;;;10.99;36.93;97384.69;6164508;28;97552;-68
2021/11/30 10:46:21;;;;;;;;;6.00;5.00;;;;;11.12;37.14;97375.31;6175063;28;97354;-69
2021/11/30 10:49:26;;;;;;;;;6.00;5.60;;;;;11.02;36.50;97376.09;6156825;28;96668;-68
2021/11/30 10:52:33;;;;;;;;;6.00;6.00;;;;;11.05;36.69;97367.47;6174254;28;98202;-68
2021/11/30 10:55:37;;;;;;;;;8.00;6.00;;;;;11.29;36.90;97355.16;6166129;28;96649;-69
2021/11/30 10:58:43;;;;;;;;;6.00;5.00;;;;;11.32;36.65;97326.88;6155446;28;97558;-68
2021/11/30 11:01:47;;;;;;;;;5.25;5.00;;;;;11.37;36.25;97331.47;6174859;28;96858;-68
2021/11/30 11:04:51;;;;;;;;;4.40;4.40;;;;;10.99;35.10;97329.97;6159587;28;97881;-67
2021/11/30 11:08:09;;;;;;;;;4.00;4.00;;;;;11.52;37.10;97326.94;6178870;28;96498;-66
2021/11/30 11:11:16;;;;;;;;;4.00;3.20;;;;;12.50;33.92;97297.06;6161164;28;97069;-68
2021/11/30 11:14:22;;;;;;;;;5.00;5.00;;;;;12.68;33.93;97291.09;6161892;28;96632;-66
2021/11/30 11:17:33;;;;;;;;;7.00;6.00;;;;;12.55;33.88;97292.47;6156282;28;97243;-67
2021/11/30 11:20:37;;;;;;;;;7.60;7.60;;;;;11.99;33.74;97291.69;6175710;28;96639;-66
2021/11/30 11:23:44;;;;;;;;;7.00;6.00;;;;;11.97;34.77;97279.53;6182143;28;97655;-66
2021/11/30 11:26:49;;;;;;;;;6.00;6.00;;;;;11.55;34.92;97248.13;6177531;28;97758;-67
2021/11/30 11:29:53;;;;;;;;;6.00;5.00;;;;;11.35;36.05;97258.88;6184627;28;97351;-67
2021/11/30 11:32:56;;;;;;;;;3.00;3.00;;;;;11.07;35.63;97248.56;6186985;28;97371;-67
2021/11/30 11:36:00;;;;;;;;;6.00;5.00;;;;;10.77;35.82;97233.06;6177655;28;97404;-66
2021/11/30 11:39:06;;;;;;;;;4.40;3.60;;;;;10.63;36.16;97224.66;6178732;28;97426;-66
2021/11/30 11:42:10;;;;;;;;;5.00;4.00;;;;;10.63;36.77;97221.13;6176771;28;97493;-67
2021/11/30 11:45:14;;;;;;;;;5.00;4.00;;;;;10.51;37.09;97207.06;6160002;28;96916;-66
2021/11/30 11:48:17;;;;;;;;;4.00;4.00;;;;;10.47;36.71;97197.88;6164995;28;96700;-65
2021/11/30 11:51:21;;;;;;;;;5.00;5.00;;;;;10.17;36.82;97193.13;6174132;28;96583;-66
2021/11/30 11:54:29;;;;;;;;;5.00;5.00;;;;;10.12;37.37;97187.69;6172170;28;96608;-66
2021/11/30 11:57:37;;;;;;;;;6.00;5.00;;;;;9.95;37.50;97187.88;6181635;28;97318;-65
2021/11/30 12:00:48;;;;;;;;;6.00;5.00;;;;;10.02;37.85;97156.13;6160500;28;97743;-67
2021/11/30 12:03:58;;;;;;;;;5.00;5.00;;;;;10.15;37.82;97157.56;6163398;28;96984;-65
2021/11/30 12:07:02;;;;;;;;;6.00;4.00;;;;;10.13;37.85;97157.81;6179943;28;97227;-65
2021/11/30 12:10:19;;;;;;;;;5.50;5.00;;;;;9.96;37.81;97141.03;6160264;28;97700;-67
2021/11/30 12:13:24;;;;;;;;;5.75;5.00;;;;;9.74;38.78;97143.03;6162382;28;98896;-66
2021/11/30 12:16:27;;;;;;;;;5.00;5.00;;;;;9.84;38.61;97119.69;6165818;28;97878;-65
2021/11/30 12:19:33;;;;;;;;;6.00;5.00;;;;;9.78;38.90;97119.91;6178677;28;96636;-67
2021/11/30 12:23:00;;;;;;;;;6.00;6.00;;;;;9.53;39.43;97101.72;6159654;28;97899;-65
2021/11/30 12:26:16;;;;;;;;;8.00;6.00;;;;;9.50;40.23;97103.06;6165015;28;97430;-67
2021/11/30 12:29:35;;;;;;;;;8.00;5.80;;;;;9.21;40.86;97084.81;6179784;28;96748;-68
2021/11/30 12:32:38;;;;;;;;;6.75;6.00;;;;;9.15;41.55;97083.94;6168823;28;97434;-68
2021/11/30 12:35:48;;;;;;;;;5.40;5.00;;;;;8.92;42.32;97065.47;6178370;28;96477;-66
2021/11/30 12:38:56;;;;;;;;;7.00;6.00;;;;;8.75;43.14;97067.47;6168480;28;97493;-67
2021/11/30 12:42:01;;;;;;;;;5.00;5.00;;;;;8.50;44.16;97046.53;6170119;28;97226;-68
2021/11/30 12:45:06;;;;;;;;;7.00;6.00;;;;;8.51;44.45;97035.53;6170121;28;96887;-67
2021/11/30 12:48:14;;;;;;;;;6.00;6.00;;;;;8.58;44.35;97021.91;6174250;28;97212;-66
2021/11/30 12:51:30;;;;;;;;;6.00;6.00;;;;;8.27;44.60;97018.06;6142180;28;97786;-67
2021/11/30 12:54:40;;;;;;;;;5.40;5.00;;;;;8.26;44.51;97003.00;6159346;28;96767;-66
2021/11/30 12:57:46;;;;;;;;;7.00;6.00;;;;;7.99;44.87;97007.56;6178432;28;97824;-66
2021/11/30 13:01:14;;;;;;;;;7.25;7.00;;;;;8.22;44.55;96997.34;6153252;28;97931;-67
2021/11/30 13:04:32;;;;;;;;;6.25;5.25;;;;;8.43;43.71;96992.22;6150985;28;96815;-67
2021/11/30 13:07:37;;;;;;;;;7.00;6.25;;;;;8.59;43.60;96981.38;6172954;28;97464;-67
2021/11/30 13:10:47;;;;;;;;;6.60;6.00;;;;;8.62;43.21;96982.72;6154661;28;96945;-66
2021/11/30 13:14:00;;;;;;;;;7.00;7.00;;;;;8.48;43.10;96985.03;6184819;28;98121;-65
2021/11/30 13:17:04;;;;;;;;;5.20;5.00;;;;;8.28;43.42;96992.84;6175653;28;97261;-67
2021/11/30 13:20:11;;;;;;;;;6.60;6.60;;;;;8.23;43.55;96972.13;6178084;28;97499;-68
2021/11/30 13:23:16;;;;;;;;;6.00;6.00;;;;;8.21;43.67;96973.44;6182773;28;96523;-64
2021/11/30 13:26:20;;;;;;;;;5.00;5.00;;;;;8.37;43.70;96969.88;6182512;28;96667;-63
2021/11/30 13:29:30;;;;;;;;;5.00;4.00;;;;;8.37;43.51;96983.31;6176148;28;96678;-64
2021/11/30 13:32:39;;;;;;;;;6.00;6.00;;;;;8.20;44.02;96956.56;6164294;28;97450;-64
2021/11/30 13:35:49;;;;;;;;;5.00;5.00;;;;;8.21;43.95;96951.97;6181049;28;96518;-64
2021/11/30 13:38:52;;;;;;;;;6.00;6.00;;;;;8.03;44.47;96946.97;6165585;28;96712;-67
2021/11/30 13:42:01;;;;;;;;;7.40;5.40;;;;;7.93;44.69;96944.16;6177688;28;97485;-67
2021/11/30 13:45:12;;;;;;;;;6.00;5.00;;;;;8.05;44.66;96945.66;6178663;28;96659;-67
2021/11/30 13:48:21;;;;;;;;;5.00;5.00;;;;;8.11;44.75;96939.25;6169060;28;97044;-68
2021/11/30 13:51:28;;;;;;;;;4.00;4.00;;;;;8.05;44.79;96918.81;6181733;28;96699;-66
2021/11/30 13:54:31;;;;;;;;;6.00;5.75;;;;;7.97;45.27;96923.81;6158320;28;98231;-66
2021/11/30 13:57:55;;;;;;;;;6.00;5.40;;;;;7.91;45.32;96914.94;6146032;28;97202;-68
2021/11/30 14:01:23;;;;;;;;;5.75;5.00;;;;;7.90;45.36;96901.75;6168454;28;98362;-65
2021/11/30 14:04:28;;;;;;;;;5.20;4.80;;;;;7.92;45.34;96913.03;6176611;28;97050;-64
2021/11/30 14:07:33;;;;;;;;;6.00;6.00;;;;;7.94;45.29;96890.25;6182218;28;97749;-65
2021/11/30 14:10:42;;;;;;;;;5.00;5.00;;;;;7.89;45.76;96887.53;6161592;28;97189;-65
2021/11/30 14:13:45;;;;;;;;;6.60;4.60;;;;;7.93;45.99;96869.84;6183962;28;97388;-65
2021/11/30 14:16:53;;;;;;;;;4.50;4.50;;;;;8.06;45.62;96861.38;6164650;28;99553;-64
2021/11/30 14:19:57;;;;;;;;;6.00;5.40;;;;;8.03;45.62;96858.41;6159381;28;97157;-64
2021/11/30 14:23:00;;;;;;;;;5.00;4.20;;;;;7.98;45.58;96858.38;6181818;28;97288;-68
2021/11/30 14:26:04;;;;;;;;;4.50;4.00;;;;;8.07;45.37;96854.97;6164357;28;97718;-66
2021/11/30 14:29:10;;;;;;;;;5.20;5.00;;;;;7.96;45.43;96844.41;6154836;28;98582;-66
2021/11/30 14:32:18;;;;;;;;;4.80;4.40;;;;;8.14;45.38;96834.09;6167756;28;98536;-66
2021/11/30 14:35:21;;;;;;;;;5.00;3.75;;;;;7.97;45.48;96836.09;6181534;28;97324;-67
2021/11/30 14:38:39;;;;;;;;;5.50;3.50;;;;;7.98;45.99;96831.53;6182247;28;96608;-65